India Meteorological Department
Airport METARs
Date : 23-04-2018
Sl. # Airport METAR
1 Ahmedabad VAAH 222200Z 01003KT 4000 FU NSC 27/01 Q1008 NOSIG=
2 Amritsar VIAR 222200Z 00000KT 5000 BR NSC 19/16 Q1009 NOSIG=
3 Bangalore VOBL 222130Z 27005KT 6000 SCT012 SCT080 22/22 Q1014 NOSIG=
4 Bhopal VABP 222100Z 05004KT 5000 HZ NSC 27/03 Q1011 NOSIG =
5 Chennai VOMM 222130Z 17007KT 6000 SCT020 30/27 Q1007 NOSIG=
6 Coimbatore VOCB 222130Z NIL=
7 Colombo VCBI 222110Z 08003KT 050V120 9000 SCT018 26/23 Q1008 NOSIG=
8 Delhi VIDP 222200Z 27006KT 4000 HZ NSC 25/03 Q1009 NOSIG=
9 Gauhati VEGT 222130Z NIL=
10 Gaya VEGY 222130Z NIL=
11 Hyderabad VOHS 222130Z 21004KT 6000 FEW020 SCT100 28/21 Q1010 NOSIG=
12 Jaipur VIJP 222200Z 34003KT 2000 HZ NSC 26/00 Q1010 NOSIG=
13 Kochi VOCI 222130Z 00000KT 4500 BR FEW015 SCT090 26/25 Q1008 NOSIG=
14 Kolkata VECC 222130Z 17006KT 3200 HZ SCT020 BKN100 28/26 Q1006 NOSIG=
15 Kozhikode VOCL 222130Z 07004KT 6000 FEW012 SCT090 25/23 Q1008 NOSIG=
16 Lucknow VILK 222130Z 29003KT 2500 HZ NSC 23/06 Q1007 NOSIG=
17 Mumbai VABB 222200Z 00000KT 3000 HZ NSC 28/23 Q1008 NOSIG=
18 Nagpur VANP 222130Z 36002KT 4000 HZ FEW020 31/07 Q1008 NOSIG=
19 Patna VEPT 222130Z NIL=
20 Raipur VERP 222100Z 02006KT 6000 FEW100 31/14 Q1007 NOSIG=
21 Trichy VOTR 222130Z 00000KT 5000 HZ FEW020 29/22 Q1007 NOSIG=
22 Trivandrum VOTV 222200Z 02003KT 3000 HZ FEW015 28/27 Q1007 NOSIG=
23 Varanasi VEBN 222130Z 32007KT 3500 HZ NSC 26/14 Q1006 NOSIG =
24 Male VRMM 222100Z 20003KT 9999 FEW018 SCT280 29/25 Q1008 NOSIG=
25 Kathmandu VNKT 222130Z NIL=
26 Dhaka VGHS 222130Z 10005KT 3500 HZ FEW015 SCT100 24/21 Q1007 NOSIG=
27 Colombo VCBI 222110Z 08003KT 050V120 9000 SCT018 26/23 Q1008 NOSIG=
28 Pune VAPO 222130Z 27006KT 6000 SKC 22/08 Q1012 NOSIG=

 

--- End of List ---